Andover, Iowa
Current Conditions -  °F | °C
As of 7:35 AM on Wednesday 26 Nov 2014 (Local Time) from KSFY Reporting Station
Haze Haze  
Wind Chill: 11°   Ceiling: Unl
Heat Index: 18°   Visibility: 5mi
Dew Point: 16°   Wind: 5mph
Humidity: 90%   Direction: 90°E
Pressure: 30.11"   Gusts: NA
Location:  41.98°N, 90.25°W
Report Text: KSFY 261335Z AUTO 09004KT 5SM BR CLR M08/M09 A3011 RMK AO2 T10761090
Loading
Personal Weather Stations






























Interactive Weather Map New forecast layout! Learn more

10-Day Weather Forecast

Advertisements
Track Severe Weather on mobile